createdAt,value
2018-11-03T07:09:01.987Z,11.73
2018-11-03T07:10:00.529Z,11.79
2018-11-03T07:10:59.051Z,11.88
2018-11-03T07:11:57.717Z,12.01
2018-11-03T07:12:56.313Z,11.95
2018-11-03T07:13:54.711Z,12.07
2018-11-03T07:14:53.314Z,12.02
2018-11-03T07:15:52.015Z,11.98
2018-11-03T07:16:50.584Z,11.98
2018-11-03T07:17:49.130Z,11.95
2018-11-03T07:18:47.873Z,12.01
2018-11-03T07:19:46.420Z,12.07
2018-11-03T07:20:44.924Z,12.12
2018-11-03T07:21:43.733Z,12.07
2018-11-03T07:22:42.161Z,12.12
2018-11-03T07:23:42.687Z,12.01
2018-11-03T07:24:41.218Z,11.95
2018-11-03T07:25:39.775Z,11.95
2018-11-03T07:26:38.350Z,12.07
2018-11-03T07:27:36.875Z,12.19
2018-11-03T07:28:35.639Z,12.07
2018-11-03T07:29:34.270Z,11.98
2018-11-03T07:30:32.845Z,11.9
2018-11-03T07:31:31.557Z,11.75
2018-11-03T07:32:30.186Z,11.76
2018-11-03T07:33:28.801Z,11.83
2018-11-03T07:34:27.364Z,11.75
2018-11-03T07:35:25.908Z,11.9
2018-11-03T07:36:24.440Z,11.98
2018-11-03T07:37:22.977Z,11.98
2018-11-03T07:38:21.525Z,12.01
2018-11-03T07:39:20.437Z,11.98
2018-11-03T07:40:19.024Z,11.79
2018-11-03T07:41:17.640Z,11.85
2018-11-03T07:42:16.158Z,11.76
2018-11-03T07:43:14.693Z,11.7
2018-11-03T07:44:13.242Z,11.67
2018-11-03T07:45:11.915Z,11.54
2018-11-03T07:46:10.435Z,11.72
2018-11-03T07:47:09.002Z,11.54
2018-11-03T07:48:07.579Z,11.67
2018-11-03T07:49:06.313Z,11.69
2018-11-03T07:50:04.608Z,11.61
2018-11-03T07:51:03.173Z,11.58
2018-11-03T07:52:01.843Z,11.46
2018-11-03T07:53:00.380Z,11.54
2018-11-03T07:53:58.943Z,11.51
2018-11-03T07:54:57.485Z,11.55
2018-11-03T07:55:56.127Z,11.47
2018-11-03T07:56:54.661Z,11.64
2018-11-03T07:57:53.191Z,11.54
2018-11-03T07:58:51.994Z,11.58
2018-11-03T07:59:50.602Z,11.58
2018-11-03T08:00:49.134Z,11.35
2018-11-03T08:01:47.743Z,11.28
2018-11-03T08:02:46.304Z,11.44
2018-11-03T08:03:44.817Z,11.49
2018-11-03T08:04:43.361Z,11.55
2018-11-03T08:05:41.925Z,11.54
2018-11-03T08:06:40.453Z,11.37
2018-11-03T08:07:38.979Z,11.57
2018-11-03T08:08:37.580Z,11.58
2018-11-03T08:09:36.177Z,11.58
2018-11-03T08:10:34.724Z,11.69
2018-11-03T08:11:33.267Z,11.55
2018-11-03T08:12:31.856Z,11.61
2018-11-03T08:13:30.490Z,11.64
2018-11-03T08:14:28.989Z,11.52
2018-11-03T08:15:27.610Z,11.42
2018-11-03T08:16:26.286Z,11.49
2018-11-03T08:17:24.824Z,11.49
2018-11-03T08:18:23.367Z,11.54
2018-11-03T08:19:22.183Z,11.44
2018-11-03T08:20:20.712Z,11.57
2018-11-03T08:21:19.298Z,11.75
2018-11-03T08:22:18.015Z,11.65
2018-11-03T08:23:16.584Z,11.61
2018-11-03T08:24:15.125Z,11.62
2018-11-03T08:25:13.797Z,11.64
2018-11-03T08:26:12.403Z,11.65
2018-11-03T08:27:10.981Z,11.43
2018-11-03T08:28:09.691Z,11.43
2018-11-03T08:29:08.280Z,11.39
2018-11-03T08:30:06.812Z,11.33
2018-11-03T08:31:05.351Z,11.4
2018-11-03T08:32:03.912Z,11.51
2018-11-03T08:33:02.474Z,11.4
2018-11-03T08:34:01.033Z,11.32
2018-11-03T08:34:59.652Z,11.39
2018-11-03T08:35:58.424Z,11.54
2018-11-03T08:36:56.962Z,11.61
2018-11-03T08:37:55.670Z,11.64
2018-11-03T08:38:54.373Z,11.65
2018-11-03T08:39:52.922Z,11.6
2018-11-03T08:40:51.461Z,11.65
2018-11-03T08:41:50.010Z,11.47
2018-11-03T08:42:48.518Z,11.64
2018-11-03T08:43:47.064Z,11.69
2018-11-03T08:44:45.600Z,11.73
2018-11-03T08:45:44.130Z,11.85
2018-11-03T08:46:42.644Z,11.8
2018-11-03T08:47:41.181Z,11.67
2018-11-03T08:48:39.747Z,11.69
2018-11-03T08:49:38.236Z,11.83
2018-11-03T08:50:36.780Z,11.9
2018-11-03T08:51:35.412Z,11.98
2018-11-03T08:52:34.033Z,11.94
2018-11-03T08:53:32.695Z,12.02
2018-11-03T08:54:31.225Z,12.01
2018-11-03T08:55:29.746Z,12.1
2018-11-03T08:56:28.357Z,12.2
2018-11-03T08:57:26.895Z,12.1
2018-11-03T08:58:25.510Z,12.13
2018-11-03T08:59:24.217Z,12.2
2018-11-03T09:00:22.827Z,12.14
2018-11-03T09:01:21.228Z,11.78
2018-11-03T09:02:19.918Z,11.95
2018-11-03T09:03:18.432Z,12.07
2018-11-03T09:04:16.971Z,12.04
2018-11-03T09:05:15.496Z,12.01
2018-11-03T09:06:14.077Z,12.23
2018-11-03T09:07:12.739Z,12.29
2018-11-03T09:08:11.156Z,12.5
2018-11-03T09:09:09.816Z,12.65
2018-11-03T09:10:08.370Z,12.85
2018-11-03T09:11:06.874Z,12.86
2018-11-03T09:12:05.423Z,12.83
2018-11-03T09:13:04.155Z,12.92
2018-11-03T09:14:02.719Z,13.03
2018-11-03T09:15:01.396Z,13.19
2018-11-03T09:16:00.039Z,13.39
2018-11-03T09:16:58.625Z,13.12
2018-11-03T09:17:57.156Z,12.68
2018-11-03T09:18:55.721Z,12.67
2018-11-03T09:19:54.300Z,12.86
2018-11-03T09:20:52.855Z,12.85
2018-11-03T09:21:51.642Z,12.83
2018-11-03T09:22:50.190Z,12.82
2018-11-03T09:23:51.678Z,12.87
2018-11-03T09:24:50.313Z,12.9
2018-11-03T09:25:48.875Z,12.93
2018-11-03T09:26:47.471Z,12.86
2018-11-03T09:27:46.147Z,12.7
2018-11-03T09:28:44.677Z,12.68
2018-11-03T09:29:43.231Z,12.68
2018-11-03T09:30:41.743Z,12.75
2018-11-03T09:31:40.349Z,12.71
2018-11-03T09:32:38.836Z,12.65
2018-11-03T09:33:37.343Z,12.75
2018-11-03T09:34:35.937Z,12.67
2018-11-03T09:35:34.404Z,12.65
2018-11-03T09:36:32.955Z,12.6
2018-11-03T09:37:31.649Z,12.64
2018-11-03T09:38:30.331Z,12.54
2018-11-03T09:39:28.881Z,12.68
2018-11-03T09:40:27.412Z,12.52
2018-11-03T09:41:26.163Z,12.45
2018-11-03T09:42:24.705Z,12.47
2018-11-03T09:43:23.272Z,12.6
2018-11-03T09:44:21.958Z,12.54
2018-11-03T09:45:20.505Z,12.53
2018-11-03T09:46:19.032Z,12.56
2018-11-03T09:47:17.579Z,12.52
2018-11-03T09:48:16.124Z,12.74
2018-11-03T09:49:14.659Z,12.59
2018-11-03T09:50:13.205Z,12.67
2018-11-03T09:51:11.915Z,12.64
2018-11-03T09:52:10.597Z,12.53
2018-11-03T09:53:09.147Z,12.72
2018-11-03T09:54:07.953Z,12.71
2018-11-03T09:55:06.528Z,12.71
2018-11-03T09:56:05.088Z,12.85
2018-11-03T09:57:04.269Z,12.85
2018-11-03T09:58:02.159Z,12.79
2018-11-03T09:59:00.680Z,12.97
2018-11-03T09:59:59.218Z,12.93
2018-11-03T10:00:57.835Z,12.96
2018-11-03T10:01:56.349Z,13
2018-11-03T10:02:54.872Z,12.95
2018-11-03T10:03:53.464Z,12.95
2018-11-03T10:04:52.176Z,12.97
2018-11-03T10:05:50.704Z,12.93
2018-11-03T10:06:49.243Z,12.87
2018-11-03T10:07:48.118Z,12.82
2018-11-03T10:08:46.674Z,13
2018-11-03T10:09:45.231Z,12.96
2018-11-03T10:10:43.951Z,13.01
2018-11-03T10:11:42.496Z,13.08
2018-11-03T10:12:41.037Z,13.19
2018-11-03T10:13:39.568Z,13.25
2018-11-03T10:14:38.348Z,13.3
2018-11-03T10:15:36.837Z,13.3
2018-11-03T10:16:35.396Z,13.11
2018-11-03T10:17:34.111Z,13.1
2018-11-03T10:18:32.700Z,13.14
2018-11-03T10:19:31.316Z,13.2
2018-11-03T10:20:29.955Z,13.33
2018-11-03T10:21:28.510Z,13.28
2018-11-03T10:22:27.192Z,13.36
2018-11-03T10:23:25.585Z,13.41
2018-11-03T10:24:24.124Z,13.55
2018-11-03T10:25:23.616Z,13.55
2018-11-03T10:26:22.191Z,13.44
2018-11-03T10:27:20.718Z,13.52
2018-11-03T10:28:19.241Z,13.54
2018-11-03T10:29:17.765Z,13.38
2018-11-03T10:30:16.312Z,13.55
2018-11-03T10:31:14.845Z,13.54
2018-11-03T10:32:13.371Z,13.54
2018-11-03T10:33:11.933Z,13.41
2018-11-03T10:34:10.505Z,13.48
2018-11-03T10:35:09.051Z,13.59
2018-11-03T10:36:07.691Z,13.52
2018-11-03T10:37:06.443Z,13.55
2018-11-03T10:38:04.960Z,13.41
2018-11-03T10:39:03.495Z,13.38
2018-11-03T10:40:02.113Z,13.49
2018-11-03T10:41:00.669Z,13.63
2018-11-03T10:41:59.255Z,13.59
2018-11-03T10:42:57.994Z,13.55
2018-11-03T10:43:56.539Z,13.49
2018-11-03T10:44:55.071Z,13.39
2018-11-03T10:45:53.807Z,13.49
2018-11-03T10:46:52.566Z,13.49
2018-11-03T10:47:51.102Z,13.55
2018-11-03T10:48:49.883Z,13.48
2018-11-03T10:49:48.576Z,13.59
2018-11-03T10:50:47.106Z,13.75
2018-11-03T10:51:45.658Z,13.73
2018-11-03T10:52:44.215Z,13.63
2018-11-03T10:53:42.849Z,13.52
2018-11-03T10:54:41.293Z,13.45
2018-11-03T10:55:39.975Z,13.6
2018-11-03T10:56:38.575Z,13.45
2018-11-03T10:57:37.186Z,13.52
2018-11-03T10:58:35.983Z,13.55
2018-11-03T10:59:34.660Z,13.6
2018-11-03T11:00:33.216Z,13.63
2018-11-03T11:01:31.736Z,13.69
2018-11-03T11:04:05.718Z,13.87
2018-11-03T11:05:04.324Z,13.91
2018-11-03T11:06:02.919Z,14.04
2018-11-03T11:07:01.497Z,14.18
2018-11-03T11:08:00.102Z,14.09
2018-11-03T11:08:58.620Z,14.15
2018-11-03T11:09:57.135Z,14.33
2018-11-03T11:10:55.776Z,14.29
2018-11-03T11:11:54.441Z,14.14
2018-11-03T11:12:52.953Z,14.22
2018-11-03T11:13:51.748Z,14.17
2018-11-03T11:14:50.384Z,14.27
2018-11-03T11:15:48.948Z,14.21
2018-11-03T11:16:47.447Z,14.17
2018-11-03T11:17:46.061Z,14.24
2018-11-03T11:18:44.643Z,14.27
2018-11-03T11:19:43.183Z,14.24
2018-11-03T11:20:41.742Z,14.14
2018-11-03T11:21:40.268Z,13.99
2018-11-03T11:22:38.794Z,14
2018-11-03T11:23:37.522Z,13.69
2018-11-03T11:24:36.094Z,13.71
2018-11-03T11:25:34.684Z,13.85
2018-11-03T11:26:33.216Z,13.95
2018-11-03T11:27:32.021Z,14.12
2018-11-03T11:28:31.299Z,14.24
2018-11-03T11:29:29.089Z,14.28
2018-11-03T11:30:27.669Z,14.35
2018-11-03T11:31:26.381Z,14.36
2018-11-03T11:32:24.893Z,14.2
2018-11-03T11:33:23.421Z,14.02
2018-11-03T11:34:21.954Z,14.12
2018-11-03T11:35:20.515Z,14.14
2018-11-03T11:36:19.047Z,14.27
2018-11-03T11:37:17.781Z,14.4
2018-11-03T11:38:16.571Z,14.42
2018-11-03T11:39:15.110Z,14.22
2018-11-03T11:40:13.769Z,14.21
2018-11-03T11:41:12.452Z,14.27
2018-11-03T11:42:10.986Z,14.22
2018-11-03T11:43:09.617Z,14.36
2018-11-03T11:44:08.062Z,14.46
2018-11-03T11:45:06.601Z,14.4
2018-11-03T11:46:05.113Z,14.36
2018-11-03T11:47:03.629Z,14.21
2018-11-03T11:48:02.178Z,14.14
2018-11-03T11:49:00.714Z,14.14
2018-11-03T11:49:59.248Z,14.29
2018-11-03T11:50:57.935Z,14.21
2018-11-03T11:51:56.677Z,14.12
2018-11-03T11:54:36.879Z,14.12
2018-11-03T11:55:35.511Z,14.1
2018-11-03T11:56:34.099Z,14.14
2018-11-03T11:57:32.765Z,14.04
2018-11-03T11:58:31.327Z,14.12
2018-11-03T11:59:29.961Z,14.17
2018-11-03T12:00:28.604Z,14.27
2018-11-03T12:01:27.153Z,14.25
2018-11-03T12:02:25.936Z,14.5
2018-11-03T12:03:24.391Z,14.61
2018-11-03T12:04:23.042Z,14.72
2018-11-03T12:05:21.651Z,14.61
2018-11-03T12:06:20.212Z,14.62
2018-11-03T12:07:18.759Z,14.72
2018-11-03T12:08:17.292Z,14.83
2018-11-03T12:09:15.847Z,14.84
2018-11-03T12:10:14.486Z,14.65
2018-11-03T12:11:13.013Z,14.61
2018-11-03T12:12:11.588Z,14.52
2018-11-03T12:13:10.184Z,14.4
2018-11-03T12:14:08.718Z,14.28
2018-11-03T12:15:07.228Z,14.24
2018-11-03T12:16:05.877Z,14.39
2018-11-03T12:17:04.505Z,14.28
2018-11-03T12:18:03.020Z,14.39
2018-11-03T12:19:01.693Z,14.39
2018-11-03T12:20:00.306Z,14.36
2018-11-03T12:20:58.845Z,14.36
2018-11-03T12:21:57.397Z,14.42
2018-11-03T12:22:56.020Z,14.54
2018-11-03T12:23:54.593Z,14.29
2018-11-03T12:24:53.136Z,14.28
2018-11-03T12:25:51.775Z,14.24
2018-11-03T12:28:26.694Z,14.51
2018-11-03T12:29:25.196Z,14.43
2018-11-03T12:30:23.732Z,14.5
2018-11-03T12:31:22.275Z,14.5
2018-11-03T12:32:20.839Z,14.68
2018-11-03T12:33:19.382Z,14.78
2018-11-03T12:34:17.906Z,14.64
2018-11-03T12:36:58.335Z,14.51
2018-11-03T12:37:56.902Z,14.54
2018-11-03T12:38:55.542Z,14.61
2018-11-03T12:39:54.113Z,14.6
2018-11-03T12:40:52.737Z,14.51
2018-11-03T12:41:51.176Z,14.54
2018-11-03T12:42:49.712Z,14.6
2018-11-03T12:43:48.347Z,14.54
2018-11-03T12:44:46.903Z,14.62
2018-11-03T12:45:45.466Z,14.45
2018-11-03T12:46:44.020Z,14.37
2018-11-03T12:47:42.580Z,14.36
2018-11-03T12:48:41.075Z,14.37
2018-11-03T12:49:39.683Z,14.4
2018-11-03T12:50:38.285Z,14.32
2018-11-03T12:51:36.795Z,14.35
2018-11-03T12:52:35.368Z,14.29
2018-11-03T12:53:34.245Z,14.37
2018-11-03T12:54:32.836Z,14.39
2018-11-03T12:55:31.335Z,14.36
2018-11-03T12:56:30.022Z,14.39
2018-11-03T12:57:28.562Z,14.37
2018-11-03T12:58:27.107Z,14.43
2018-11-03T12:59:25.644Z,14.36
2018-11-03T13:00:24.166Z,14.4
2018-11-03T13:01:23.592Z,14.35
2018-11-03T13:02:22.214Z,14.22
2018-11-03T13:03:20.865Z,14.32
2018-11-03T13:04:19.287Z,14.36
2018-11-03T13:05:18.002Z,14.42
2018-11-03T13:06:16.373Z,14.27
2018-11-03T13:07:14.859Z,14.46
2018-11-03T13:08:13.388Z,14.37
2018-11-03T13:09:12.007Z,14.35
2018-11-03T13:10:10.550Z,14.37
2018-11-03T13:11:09.078Z,14.46
2018-11-03T13:12:07.744Z,14.35
2018-11-03T13:13:06.478Z,14.42
2018-11-03T13:14:05.020Z,14.33
2018-11-03T13:15:03.763Z,14.4
2018-11-03T13:16:02.304Z,14.42
2018-11-03T13:17:00.827Z,14.39
2018-11-03T13:17:59.340Z,14.36
2018-11-03T13:18:57.914Z,14.35
2018-11-03T13:19:56.423Z,14.46
2018-11-03T13:20:54.961Z,14.6
2018-11-03T13:21:53.473Z,14.68
2018-11-03T13:22:52.127Z,14.64
2018-11-03T13:23:50.655Z,14.73
2018-11-03T13:24:49.240Z,14.7
2018-11-03T13:25:47.792Z,14.8
2018-11-03T13:26:46.402Z,14.78
2018-11-03T13:27:45.022Z,14.88
2018-11-03T13:28:43.554Z,14.72
2018-11-03T13:29:42.337Z,14.81
2018-11-03T13:30:40.858Z,14.77
2018-11-03T13:31:39.421Z,14.77
2018-11-03T13:32:38.166Z,14.96
2018-11-03T13:33:36.676Z,14.91
2018-11-03T13:34:35.211Z,15.06
2018-11-03T13:35:33.722Z,14.96
2018-11-03T13:36:32.313Z,14.89
2018-11-03T13:37:30.877Z,15.03
2018-11-03T13:38:29.382Z,15.06
2018-11-03T13:39:27.920Z,15.06
2018-11-03T13:40:26.478Z,15.02
2018-11-03T13:41:25.020Z,15.1
2018-11-03T13:42:23.679Z,15.07
2018-11-03T13:43:22.435Z,15.02
2018-11-03T13:44:20.970Z,14.89
2018-11-03T13:45:19.507Z,14.95
2018-11-03T13:46:18.118Z,15.06
2018-11-03T13:47:16.726Z,15.03
2018-11-03T13:48:15.193Z,15.09
2018-11-03T13:49:13.776Z,15.03
2018-11-03T13:50:12.486Z,15.03
2018-11-03T13:53:51.317Z,14.98
2018-11-03T13:54:49.937Z,14.91
2018-11-03T13:55:48.691Z,14.94
2018-11-03T13:56:47.254Z,14.92
2018-11-03T13:57:45.776Z,14.77
2018-11-03T13:58:44.440Z,14.84
2018-11-03T13:59:42.987Z,14.89
2018-11-03T14:00:41.552Z,14.8
2018-11-03T14:01:40.092Z,14.78
2018-11-03T14:02:38.634Z,14.84
2018-11-03T14:03:37.169Z,14.86
2018-11-03T14:04:35.706Z,14.94
2018-11-03T14:05:34.257Z,14.91
2018-11-03T14:06:32.815Z,14.84
2018-11-03T14:07:31.347Z,14.77
2018-11-03T14:08:29.998Z,14.77
2018-11-03T14:09:28.604Z,14.83
2018-11-03T14:10:27.173Z,14.84
2018-11-03T14:11:25.941Z,14.86
2018-11-03T14:12:24.575Z,14.84
2018-11-03T14:13:23.098Z,14.89
2018-11-03T14:14:21.633Z,14.86
2018-11-03T14:15:20.289Z,14.88
2018-11-03T14:16:18.799Z,14.94
2018-11-03T14:17:17.585Z,14.91
2018-11-03T14:18:16.091Z,14.92
2018-11-03T14:19:14.649Z,15.02
2018-11-03T14:21:37.568Z,15.06
2018-11-03T14:22:36.191Z,14.89
2018-11-03T14:23:34.938Z,14.91
2018-11-03T14:24:33.396Z,14.84
2018-11-03T14:25:31.928Z,14.77
2018-11-03T14:26:30.474Z,14.94
2018-11-03T14:27:28.997Z,14.83
2018-11-03T14:28:27.518Z,14.8
2018-11-03T14:29:26.094Z,14.8
2018-11-03T14:30:24.609Z,14.65
2018-11-03T14:31:23.146Z,14.61
2018-11-03T14:32:21.826Z,14.61
2018-11-03T14:33:20.466Z,14.7
2018-11-03T14:34:18.972Z,14.7
2018-11-03T14:35:17.523Z,14.62
2018-11-03T14:36:16.363Z,14.68
2018-11-03T14:37:14.819Z,14.7
2018-11-03T14:38:13.351Z,14.81
2018-11-03T14:39:12.012Z,14.72
2018-11-03T14:40:10.596Z,14.77
2018-11-03T14:41:09.171Z,14.69
2018-11-03T14:42:07.720Z,14.75
2018-11-03T14:43:06.343Z,14.64
2018-11-03T14:44:04.864Z,14.58
2018-11-03T14:45:03.410Z,14.54
2018-11-03T14:46:02.080Z,14.65
2018-11-03T14:47:00.721Z,14.73
2018-11-03T14:47:59.487Z,14.75
2018-11-03T14:48:58.062Z,14.75
2018-11-03T14:49:56.721Z,14.88
2018-11-03T14:50:55.241Z,14.61
2018-11-03T14:51:53.793Z,14.73
2018-11-03T14:52:52.374Z,14.65
2018-11-03T14:53:50.916Z,14.7
2018-11-03T14:54:49.522Z,14.77
2018-11-03T14:55:48.183Z,14.64
2018-11-03T14:56:46.893Z,14.47
2018-11-03T14:57:45.365Z,14.5
2018-11-03T14:58:43.934Z,14.52
2018-11-03T14:59:42.528Z,14.51
2018-11-03T15:00:41.095Z,14.51
2018-11-03T15:01:39.713Z,14.52
2018-11-03T15:02:38.440Z,14.55
2018-11-03T15:03:37.088Z,14.64
2018-11-03T15:04:35.782Z,14.62
2018-11-03T15:05:34.643Z,14.57
2018-11-03T15:06:33.173Z,14.58
2018-11-03T15:07:31.804Z,14.5
2018-11-03T15:08:30.531Z,14.5
2018-11-03T15:09:28.989Z,14.51
2018-11-03T15:10:27.547Z,14.46
2018-11-03T15:11:26.086Z,14.45
2018-11-03T15:12:24.602Z,14.52
2018-11-03T15:13:23.188Z,14.52
2018-11-03T15:14:22.063Z,14.54
2018-11-03T15:15:20.255Z,14.51
2018-11-03T15:16:18.818Z,14.62
2018-11-03T15:17:17.355Z,14.5
2018-11-03T15:18:16.060Z,14.57
2018-11-03T15:19:14.712Z,14.58
2018-11-03T15:20:13.317Z,14.57
2018-11-03T15:21:11.932Z,14.54
2018-11-03T15:22:10.879Z,14.5
2018-11-03T15:23:09.034Z,14.61
2018-11-03T15:24:07.581Z,14.55
2018-11-03T15:25:06.280Z,14.47
2018-11-03T15:26:04.851Z,14.52
2018-11-03T15:27:03.336Z,14.5
2018-11-03T15:28:01.904Z,14.61
2018-11-03T15:29:00.475Z,14.47
2018-11-03T15:29:58.969Z,14.57
2018-11-03T15:30:57.586Z,14.52
2018-11-03T15:31:56.254Z,14.5
2018-11-03T15:32:54.946Z,14.5
2018-11-03T15:33:53.481Z,14.5
2018-11-03T15:34:52.125Z,14.55
2018-11-03T15:35:50.656Z,14.43
2018-11-03T15:36:49.225Z,14.37
2018-11-03T15:37:47.789Z,14.43
2018-11-03T15:38:46.421Z,14.37
2018-11-03T15:39:44.989Z,14.36
2018-11-03T15:40:43.506Z,14.39
2018-11-03T15:41:42.019Z,14.4
2018-11-03T15:42:40.609Z,14.39
2018-11-03T15:43:39.146Z,14.27
2018-11-03T15:44:37.706Z,14.36
2018-11-03T15:45:36.237Z,14.36
2018-11-03T15:46:34.782Z,14.35
2018-11-03T15:47:33.333Z,14.27
2018-11-03T15:48:31.922Z,14.37
2018-11-03T15:49:30.651Z,14.33
2018-11-03T15:50:29.196Z,14.35
2018-11-03T15:51:27.974Z,14.33
2018-11-03T15:52:26.564Z,14.4
2018-11-03T15:53:25.249Z,14.39
2018-11-03T15:54:23.788Z,14.37
2018-11-03T15:55:22.327Z,14.4
2018-11-03T15:56:20.926Z,14.45
2018-11-03T15:59:01.224Z,14.4
2018-11-03T15:59:59.821Z,14.37
2018-11-03T16:00:58.357Z,14.32
2018-11-03T16:01:56.926Z,14.4
2018-11-03T16:02:55.643Z,14.35
2018-11-03T16:03:54.235Z,14.35
2018-11-03T16:04:52.938Z,14.4
2018-11-03T16:05:51.728Z,14.35
2018-11-03T16:06:50.615Z,14.36
2018-11-03T16:07:49.718Z,14.37
2018-11-03T16:08:48.821Z,14.45
2018-11-03T16:09:48.085Z,14.4
2018-11-03T16:10:47.090Z,14.39
2018-11-03T16:11:46.224Z,14.37
2018-11-03T16:12:45.352Z,14.43
2018-11-03T16:13:44.251Z,14.45
2018-11-03T16:14:42.842Z,14.37
2018-11-03T16:15:41.380Z,14.39
2018-11-03T16:16:39.905Z,14.33
2018-11-03T16:17:38.500Z,14.43
2018-11-03T16:18:37.070Z,14.43
2018-11-03T16:19:35.736Z,14.55
2018-11-03T16:20:34.329Z,14.47
2018-11-03T16:21:32.876Z,14.55
2018-11-03T16:22:31.423Z,14.55
2018-11-03T16:23:30.207Z,14.46
2018-11-03T16:24:28.745Z,14.5
2018-11-03T16:25:27.370Z,14.5
2018-11-03T16:26:25.986Z,14.43
2018-11-03T16:27:24.607Z,14.52
2018-11-03T16:28:23.227Z,14.5
2018-11-03T16:29:21.722Z,14.51
2018-11-03T16:30:20.266Z,14.5
2018-11-03T16:31:18.821Z,14.51
2018-11-03T16:32:17.464Z,14.52
2018-11-03T16:33:16.104Z,14.47
2018-11-03T16:34:14.802Z,14.52
2018-11-03T16:35:13.314Z,14.46
2018-11-03T16:36:12.095Z,14.55
2018-11-03T16:37:10.755Z,14.52
2018-11-03T16:38:09.331Z,14.57
2018-11-03T16:39:07.893Z,14.61
2018-11-03T16:40:06.457Z,14.61
2018-11-03T16:41:04.987Z,14.62
2018-11-03T16:42:03.479Z,14.58
2018-11-03T16:43:02.025Z,14.52
2018-11-03T16:44:00.579Z,14.58
2018-11-03T16:44:59.103Z,14.58
2018-11-03T16:45:57.602Z,14.64
2018-11-03T16:46:56.146Z,14.64
2018-11-03T16:47:54.687Z,14.58
2018-11-03T16:48:53.211Z,14.52
2018-11-03T16:49:51.856Z,14.61
2018-11-03T16:50:50.481Z,14.62
2018-11-03T16:51:48.996Z,14.58
2018-11-03T16:52:47.670Z,14.61
2018-11-03T16:53:46.271Z,14.6
2018-11-03T16:54:44.817Z,14.52
2018-11-03T16:55:43.376Z,14.51
2018-11-03T16:56:41.896Z,14.51
2018-11-03T16:57:40.622Z,14.5
2018-11-03T16:58:39.261Z,14.47
2018-11-03T16:59:37.762Z,14.37
2018-11-03T17:00:36.307Z,14.51
2018-11-03T17:01:34.888Z,14.5
2018-11-03T17:02:33.439Z,14.61
2018-11-03T17:03:32.099Z,14.58
2018-11-03T17:04:30.819Z,14.61
2018-11-03T17:05:29.351Z,14.68
2018-11-03T17:06:28.001Z,14.52
2018-11-03T17:07:26.695Z,14.37
2018-11-03T17:08:25.204Z,14.45
2018-11-03T17:11:05.369Z,14.46
2018-11-03T17:12:03.918Z,14.5
2018-11-03T17:13:02.442Z,14.47
2018-11-03T17:14:01.083Z,14.5
2018-11-03T17:14:59.708Z,14.45
2018-11-03T17:15:58.336Z,14.45
2018-11-03T17:16:56.869Z,14.5
2018-11-03T17:17:55.492Z,14.58
2018-11-03T17:18:54.140Z,14.6
2018-11-03T17:19:52.671Z,14.6
2018-11-03T17:20:52.140Z,14.54
2018-11-03T17:21:50.783Z,14.52
2018-11-03T17:22:49.312Z,14.51
2018-11-03T17:23:47.934Z,14.47
2018-11-03T17:24:46.666Z,14.42
2018-11-03T17:25:45.148Z,14.5
2018-11-03T17:26:43.872Z,14.43
2018-11-03T17:27:42.534Z,14.46
2018-11-03T17:28:41.033Z,14.54
2018-11-03T17:29:39.589Z,14.45
2018-11-03T17:30:38.217Z,14.46
2018-11-03T17:31:36.757Z,14.5
2018-11-03T17:32:35.390Z,14.37
2018-11-03T17:33:33.987Z,14.36
2018-11-03T17:34:32.651Z,14.36
2018-11-03T17:35:31.185Z,14.36
2018-11-03T17:36:29.795Z,14.51
2018-11-03T17:37:28.279Z,14.46
2018-11-03T17:38:26.824Z,14.52
2018-11-03T17:39:25.406Z,14.36
2018-11-03T17:40:23.954Z,14.39
2018-11-03T17:41:22.657Z,14.35
2018-11-03T17:42:21.220Z,14.24
2018-11-03T17:43:19.725Z,14.27
2018-11-03T17:44:18.429Z,14.36
2018-11-03T17:45:16.967Z,14.36
2018-11-03T17:46:15.661Z,14.36
2018-11-03T17:47:14.224Z,14.47
2018-11-03T17:49:13.910Z,14.43
2018-11-03T17:50:12.522Z,14.45
2018-11-03T17:51:11.083Z,14.45
2018-11-03T17:52:09.600Z,14.51
2018-11-03T17:53:08.187Z,14.43
2018-11-03T17:54:06.902Z,14.54
2018-11-03T17:55:05.453Z,14.52
2018-11-03T17:56:04.016Z,14.61
2018-11-03T17:57:02.555Z,14.61
2018-11-03T17:58:01.070Z,14.51
2018-11-03T17:58:59.630Z,14.37
2018-11-03T17:59:58.219Z,14.33
2018-11-03T18:00:56.806Z,14.4
2018-11-03T18:01:55.196Z,14.39
2018-11-03T18:02:53.754Z,14.24
2018-11-03T18:03:52.391Z,14.29
2018-11-03T18:04:50.976Z,14.21
2018-11-03T18:05:49.520Z,14.25
2018-11-03T18:06:48.448Z,14.25
2018-11-03T18:07:46.999Z,14.25
2018-11-03T18:08:45.516Z,14.37
2018-11-03T18:09:44.238Z,14.37
2018-11-03T18:10:42.787Z,14.27
2018-11-03T18:11:41.303Z,14.21
2018-11-03T18:12:39.863Z,14.28
2018-11-03T18:13:38.385Z,14.35
2018-11-03T18:14:36.919Z,14.37
2018-11-03T18:15:35.472Z,14.35
2018-11-03T18:16:34.120Z,14.4
2018-11-03T18:17:32.764Z,14.35
2018-11-03T18:18:31.299Z,14.47
2018-11-03T18:19:29.865Z,14.47
2018-11-03T18:20:28.533Z,14.37
2018-11-03T18:21:27.065Z,14.42
2018-11-03T18:22:25.686Z,14.37
2018-11-03T18:23:24.414Z,14.43
2018-11-03T18:24:22.977Z,14.47
2018-11-03T18:25:21.551Z,14.55
2018-11-03T18:26:20.352Z,14.42
2018-11-03T18:27:18.783Z,14.51
2018-11-03T18:28:17.330Z,14.5
2018-11-03T18:29:15.930Z,14.55
2018-11-03T18:30:14.723Z,14.47
2018-11-03T18:31:13.316Z,14.5
2018-11-03T18:32:11.873Z,14.52
2018-11-03T18:33:55.397Z,14.51
2018-11-03T18:34:53.939Z,14.47
2018-11-03T18:35:52.471Z,14.35
2018-11-03T18:36:51.044Z,14.51
2018-11-03T18:37:49.749Z,14.37
2018-11-03T18:38:48.142Z,14.22
2018-11-03T18:39:46.718Z,14.22
2018-11-03T18:40:45.247Z,14.18
2018-11-03T18:41:43.921Z,14.17
2018-11-03T18:42:42.409Z,14.29
2018-11-03T18:43:40.936Z,14.15
2018-11-03T18:44:39.443Z,14.27
2018-11-03T18:45:38.043Z,14.25
2018-11-03T18:46:36.794Z,14.36
2018-11-03T18:47:35.273Z,14.4
2018-11-03T18:48:33.854Z,14.33
2018-11-03T18:49:32.465Z,14.35
2018-11-03T18:50:31.029Z,14.36
2018-11-03T18:51:29.584Z,14.37
2018-11-03T18:52:28.232Z,14.33
2018-11-03T18:53:26.752Z,14.36
2018-11-03T18:54:25.296Z,14.22
2018-11-03T18:55:23.819Z,14.25
2018-11-03T18:59:02.454Z,14.36
2018-11-03T19:00:01.001Z,14.47
2018-11-03T19:00:59.571Z,14.55
2018-11-03T19:01:58.216Z,14.47
2018-11-03T19:02:56.783Z,14.51
2018-11-03T19:03:55.308Z,14.6
2018-11-03T19:04:53.822Z,14.52
2018-11-03T19:05:53.204Z,14.47
2018-11-03T19:06:51.729Z,14.5
2018-11-03T19:07:50.359Z,14.54
2018-11-03T19:08:48.970Z,14.5
2018-11-03T19:09:47.487Z,14.54
2018-11-03T19:10:46.296Z,14.47
2018-11-03T19:11:44.894Z,14.51
2018-11-03T19:12:43.451Z,14.51
2018-11-03T19:13:41.960Z,14.5
2018-11-03T19:14:40.558Z,14.45
2018-11-03T19:15:39.196Z,14.43
2018-11-03T19:16:37.800Z,14.54
2018-11-03T19:17:36.489Z,14.51
2018-11-03T19:18:35.033Z,14.43
2018-11-03T19:19:33.560Z,14.36
2018-11-03T19:20:32.147Z,14.29
2018-11-03T19:21:30.797Z,14.27
2018-11-03T19:22:29.335Z,14.39
2018-11-03T19:23:28.053Z,14.4
2018-11-03T19:24:26.555Z,14.4
2018-11-03T19:25:25.109Z,14.51
2018-11-03T19:26:23.644Z,14.55
2018-11-03T19:27:22.280Z,14.45
2018-11-03T19:28:20.988Z,14.42
2018-11-03T19:29:19.537Z,14.42
2018-11-03T19:30:18.157Z,14.45
2018-11-03T19:31:16.624Z,14.4
2018-11-03T19:32:15.157Z,14.4
2018-11-03T19:33:13.686Z,14.39
2018-11-03T19:34:12.391Z,14.51
2018-11-03T19:35:10.993Z,14.51
2018-11-03T19:36:09.535Z,14.36
2018-11-03T19:37:08.260Z,14.27
2018-11-03T19:38:06.866Z,14.27
2018-11-03T19:39:05.396Z,14.24
2018-11-03T19:40:03.905Z,14.29
2018-11-03T19:41:02.468Z,14.36
2018-11-03T19:42:01.048Z,14.27
2018-11-03T19:42:59.575Z,14.33
2018-11-03T19:43:58.122Z,14.42
2018-11-03T19:44:56.681Z,14.27
2018-11-03T19:45:55.252Z,14.24
2018-11-03T19:46:53.885Z,14.32
2018-11-03T19:47:52.511Z,14.32
2018-11-03T19:48:51.190Z,14.29
2018-11-03T19:49:49.848Z,14.27
2018-11-03T19:50:48.511Z,14.39
2018-11-03T19:51:47.077Z,14.37
2018-11-03T19:52:45.566Z,14.37
2018-11-03T19:53:44.155Z,14.22
2018-11-03T19:54:42.759Z,14.37
2018-11-03T19:55:41.395Z,14.22
2018-11-03T19:56:39.826Z,14.28
2018-11-03T19:57:38.343Z,14.39
2018-11-03T19:58:36.928Z,14.24
2018-11-03T19:59:35.481Z,14.42
2018-11-03T20:00:34.230Z,14.35
2018-11-03T20:01:32.831Z,14.45
2018-11-03T20:02:31.445Z,14.42
2018-11-03T20:03:30.220Z,14.5
2018-11-03T20:04:28.823Z,14.46